.
WxDataArchive / Data Records for 2008-01-11
2008-01-10 January 2008 2008-01-12

Data Records for Friday, 11 January 2008

Time	Temp	Chill	HIndex	Humid	Dewpt	 Wind 	HiWind	WindDir	Rain 	Barom 
-----	----	-----	------	-----	-----	------	------	-------	-----	----- 
00:00	48.6	45.5	48.6	80	42.7	7	16	248	0.00	29.329 
00:05	48.2	44.6	48.2	79	42.0	8	16	270	0.00	29.330 
00:10	47.9	43.8	47.9	80	42.0	9	19	270	0.00	29.331 
00:15	47.7	43.6	47.7	81	42.2	9	20	248	0.01	29.334 
00:20	47.4	43.6	47.4	81	41.9	8	19	270	0.00	29.339 
00:25	47.1	43.7	47.1	81	41.6	7	14	248	0.00	29.337 
00:30	47.0	43.6	47.0	81	41.5	7	14	248	0.00	29.336 
00:35	46.8	43.9	46.8	81	41.3	6	13	270	0.00	29.336 
00:40	46.7	43.7	46.7	81	41.2	6	13	248	0.00	29.337 
00:45	46.5	43.5	46.5	81	41.0	6	17	270	0.00	29.334 
00:50	46.2	42.1	46.2	79	40.1	8	19	270	0.00	29.333 
00:55	46.1	43.0	46.1	79	40.0	6	18	270	0.00	29.334 
01:00	45.8	41.7	45.8	80	40.0	8	20	270	0.00	29.332 
01:05	45.5	41.8	45.5	80	39.7	7	14	270	0.00	29.332 
01:10	45.4	40.7	45.4	81	39.9	9	19	270	0.00	29.341 
01:15	45.1	42.5	45.1	82	39.9	5	13	248	0.00	29.338 
01:20	44.9	41.0	44.9	82	39.7	7	17	270	0.00	29.343 
01:25	44.8	40.9	44.8	82	39.6	7	18	270	0.00	29.345 
01:30	44.6	40.7	44.6	82	39.4	7	17	270	0.00	29.347 
01:35	44.5	41.8	44.5	81	39.0	5	13	270	0.00	29.347 
01:40	44.3	40.3	44.3	80	38.5	7	15	270	0.00	29.345 
01:45	44.1	41.3	44.1	80	38.3	5	14	270	0.00	29.345 
01:50	43.9	39.8	43.9	80	38.1	7	18	270	0.00	29.347 
01:55	43.8	39.2	43.8	80	38.0	8	17	248	0.00	29.347 
02:00	43.8	40.3	43.8	80	38.0	6	17	270	0.00	29.351 
02:05	43.6	38.5	43.6	79	37.5	9	16	248	0.00	29.356 
02:10	43.6	40.0	43.6	79	37.5	6	13	270	0.00	29.359 
02:15	43.6	40.7	43.6	80	37.8	5	14	270	0.00	29.359 
02:20	43.5	39.4	43.5	80	37.7	7	15	270	0.00	29.359 
02:25	43.3	39.7	43.3	80	37.6	6	14	248	0.00	29.359 
02:30	43.2	40.2	43.2	81	37.8	5	14	270	0.00	29.362 
02:35	43.1	39.5	43.1	81	37.7	6	13	248	0.00	29.364 
02:40	42.9	39.9	42.9	81	37.5	5	11	270	0.00	29.364 
02:45	42.8	38.5	42.8	81	37.4	7	15	270	0.00	29.365 
02:50	42.8	39.1	42.8	81	37.4	6	15	248	0.00	29.367 
02:55	42.6	38.9	42.6	81	37.2	6	12	270	0.00	29.367 
03:00	42.8	39.1	42.8	80	37.1	6	20	270	0.00	29.369 
03:05	42.6	39.5	42.6	80	36.9	5	13	270	0.00	29.372 
03:10	42.6	38.9	42.6	79	36.6	6	16	248	0.00	29.374 
03:15	42.6	38.9	42.6	80	36.9	6	15	270	0.00	29.377 
03:20	42.5	37.6	42.5	80	36.8	8	16	270	0.00	29.381 
03:25	42.3	38.5	42.3	81	36.9	6	15	270	0.00	29.381 
03:30	42.1	38.9	42.1	82	37.0	5	14	248	0.00	29.381 
03:35	41.9	38.0	41.9	82	36.8	6	14	270	0.00	29.383 
03:40	41.8	37.9	41.8	83	37.0	6	17	270	0.00	29.383 
03:45	41.6	38.4	41.6	85	37.4	5	15	248	0.00	29.382 
03:50	41.2	37.2	41.2	87	37.6	6	18	270	0.00	29.388 
03:55	40.9	36.2	40.9	87	37.3	7	14	248	0.00	29.388 
04:00	40.8	36.7	40.8	88	37.5	6	16	248	0.00	29.391 
04:05	40.6	37.2	40.6	88	37.3	5	14	248	0.00	29.394 
04:10	40.5	36.4	40.5	88	37.2	6	14	248	0.00	29.397 
04:15	40.5	36.4	40.5	88	37.2	6	12	270	0.00	29.398 
04:20	40.5	37.9	40.5	88	37.2	4	12	248	0.00	29.399 
04:25	40.3	36.1	40.3	88	37.0	6	18	270	0.00	29.398 
04:30	40.1	35.3	40.1	87	36.5	7	15	270	0.00	29.399 
04:35	39.9	35.0	39.9	87	36.4	7	16	270	0.00	29.401 
04:40	39.6	36.0	39.6	88	36.3	5	13	248	0.00	29.404 
04:45	39.5	35.2	39.5	87	36.0	6	15	270	0.00	29.410 
04:50	39.5	34.5	39.5	87	36.0	7	15	270	0.00	29.411 
04:55	39.3	34.3	39.3	86	35.5	7	16	270	0.00	29.416 
05:00	39.3	34.9	39.3	87	35.8	6	13	270	0.00	29.419 
05:05	39.2	34.8	39.2	87	35.7	6	14	270	0.00	29.421 
05:10	39.2	35.5	39.2	87	35.7	5	13	270	0.00	29.427 
05:15	39.2	34.2	39.2	87	35.7	7	16	248	0.00	29.430 
05:20	39.1	35.4	39.1	87	35.6	5	12	270	0.00	29.432 
05:25	38.9	36.0	38.9	87	35.4	4	16	270	0.00	29.433 
05:30	38.8	35.1	38.8	87	35.3	5	11	248	0.00	29.436 
05:35	38.8	35.1	38.8	88	35.6	5	14	270	0.00	29.439 
05:40	38.6	33.5	38.6	88	35.4	7	15	270	0.00	29.445 
05:45	38.6	34.1	38.6	87	35.1	6	12	270	0.00	29.446 
05:50	38.6	35.7	38.6	87	35.1	4	16	270	0.00	29.447 
05:55	38.6	34.1	38.6	86	34.8	6	15	270	0.00	29.448 
06:00	38.6	34.8	38.6	85	34.5	5	12	248	0.00	29.450 
06:05	38.6	34.1	38.6	85	34.5	6	18	270	0.00	29.451 
06:10	38.3	33.7	38.3	85	34.2	6	19	270	0.00	29.454 
06:15	38.2	33.0	38.2	85	34.1	7	15	270	0.00	29.456 
06:20	38.0	32.7	38.0	84	33.6	7	17	270	0.00	29.460 
06:25	38.0	32.7	38.0	84	33.6	7	23	270	0.00	29.464 
06:30	37.9	33.3	37.9	84	33.5	6	23	270	0.00	29.464 
06:35	37.8	32.5	37.8	83	33.1	7	18	270	0.00	29.467 
06:40	37.8	33.9	37.8	83	33.1	5	15	270	0.00	29.474 
06:45	37.6	34.5	37.6	84	33.2	4	16	270	0.00	29.477 
06:50	37.6	33.7	37.6	84	33.2	5	13	270	0.00	29.478 
06:55	37.6	34.5	37.6	84	33.2	4	11	248	0.00	29.481 
07:00	37.5	34.4	37.5	83	32.8	4	12	270	0.00	29.485 
07:05	37.5	32.1	37.5	83	32.8	7	18	270	0.00	29.490 
07:10	37.3	32.5	37.3	83	32.6	6	17	270	0.00	29.494 
07:15	37.3	34.2	37.3	83	32.6	4	12	270	0.00	29.496 
07:20	37.3	31.9	37.3	82	32.3	7	14	270	0.00	29.496 
07:25	37.2	32.4	37.2	82	32.2	6	15	270	0.00	29.502 
07:30	37.0	32.9	37.0	81	31.7	5	14	270	0.00	29.507 
07:35	37.0	32.9	37.0	82	32.0	5	14	270	0.00	29.509 
07:40	36.9	33.7	36.9	81	31.6	4	12	270	0.00	29.511 
07:45	36.9	32.8	36.9	80	31.3	5	11	270	0.00	29.513 
07:50	36.9	32.8	36.9	79	31.0	5	15	270	0.00	29.515 
07:55	36.9	32.8	36.9	78	30.7	5	16	270	0.00	29.518 
08:00	36.9	32.8	36.9	77	30.4	5	14	270	0.00	29.524 
08:05	36.9	33.7	36.9	77	30.4	4	12	270	0.00	29.525 
08:10	36.9	36.9	36.9	77	30.4	3	9	270	0.00	29.526 
08:15	37.0	32.2	37.0	76	30.2	6	17	270	0.00	29.529 
08:20	37.0	32.9	37.0	76	30.2	5	13	270	0.00	29.533 
08:25	36.9	33.7	36.9	77	30.4	4	10	270	0.00	29.539 
08:30	36.9	33.7	36.9	77	30.4	4	11	248	0.00	29.540 
08:35	36.9	36.9	36.9	77	30.4	3	7	248	0.00	29.542 
08:40	36.9	33.7	36.9	77	30.4	4	9	270	0.00	29.543 
08:45	36.9	36.9	36.9	77	30.4	3	6	270	0.00	29.546 
08:50	36.9	32.8	36.9	76	30.1	5	12	270	0.00	29.551 
08:55	37.0	32.2	37.0	76	30.2	6	14	270	0.00	29.553 
09:00	36.9	33.7	36.9	77	30.4	4	10	270	0.00	29.558 
09:05	36.9	32.8	36.9	77	30.4	5	14	270	0.00	29.554 
09:10	36.9	33.7	36.9	77	30.4	4	11	270	0.00	29.555 
09:15	36.9	33.7	36.9	77	30.4	4	12	270	0.00	29.562 
09:20	36.9	33.7	36.9	78	30.7	4	9	270	0.00	29.567 
09:25	36.8	36.8	36.8	79	30.9	3	11	248	0.00	29.570 
09:30	36.8	36.8	36.8	79	30.9	3	6	270	0.00	29.573 
09:35	36.8	33.6	36.8	78	30.6	4	9	270	0.00	29.577 
09:40	36.9	33.7	36.9	78	30.7	4	11	270	0.00	29.581 
09:45	36.9	36.9	36.9	78	30.7	3	11	248	0.00	29.583 
09:50	36.9	33.7	36.9	78	30.7	4	11	270	0.00	29.584 
09:55	37.0	33.9	37.0	78	30.8	4	12	270	0.00	29.586 
10:00	37.0	33.9	37.0	77	30.5	4	12	270	0.00	29.593 
10:05	37.0	32.9	37.0	77	30.5	5	13	270	0.00	29.594 
10:10	37.0	37.0	37.0	77	30.5	3	9	270	0.00	29.598 
10:15	37.0	32.9	37.0	77	30.5	5	13	270	0.00	29.599 
10:20	37.0	32.9	37.0	76	30.2	5	13	270	0.00	29.603 
10:25	37.0	32.9	37.0	76	30.2	5	14	270	0.00	29.608 
10:30	37.0	32.9	37.0	77	30.5	5	13	270	0.00	29.612 
10:35	36.9	32.8	36.9	77	30.4	5	12	270	0.00	29.614 
10:40	36.9	36.9	36.9	78	30.7	3	9	248	0.00	29.616 
10:45	36.9	33.7	36.9	78	30.7	4	13	270	0.00	29.618 
10:50	36.8	33.6	36.8	79	30.9	4	7	270	0.00	29.619 
10:55	36.8	33.6	36.8	80	31.2	4	9	270	0.00	29.623 
11:00	36.6	36.6	36.6	81	31.3	2	7	270	0.00	29.629 
11:05	36.6	32.5	36.6	81	31.3	5	14	248	0.00	29.632 
11:10	36.6	33.4	36.6	82	31.6	4	8	270	0.00	29.638 
11:15	36.5	33.3	36.5	82	31.5	4	12	270	0.00	29.640 
11:20	36.5	31.6	36.5	83	31.8	6	15	270	0.00	29.641 
11:25	36.3	33.0	36.3	84	31.9	4	12	270	0.00	29.644 
11:30	36.2	32.9	36.2	85	32.1	4	12	270	0.00	29.647 
11:35	36.2	32.9	36.2	85	32.1	4	9	270	0.00	29.648 
11:40	36.2	32.9	36.2	86	32.4	4	10	270	0.00	29.649 
11:45	36.2	32.9	36.2	86	32.4	4	8	270	0.00	29.648 
11:50	36.3	32.1	36.3	85	32.2	5	12	270	0.00	29.648 
11:55	36.5	36.5	36.5	86	32.7	3	9	270	0.00	29.648 
12:00	36.5	36.5	36.5	86	32.7	3	9	270	0.00	29.646 
12:05	36.5	33.3	36.5	86	32.7	4	14	270	0.00	29.649 
12:10	36.5	33.3	36.5	86	32.7	4	12	270	0.00	29.650 
12:15	36.5	32.4	36.5	85	32.4	5	12	270	0.00	29.650 
12:20	36.5	33.3	36.5	86	32.7	4	12	248	0.00	29.652 
12:25	36.2	32.9	36.2	86	32.4	4	10	270	0.00	29.656 
12:30	36.2	36.2	36.2	87	32.7	3	12	270	0.00	29.659 
12:35	36.0	31.8	36.0	87	32.5	5	12	270	0.00	29.662 
12:40	36.0	31.8	36.0	87	32.5	5	11	270	0.00	29.663 
12:45	36.0	32.7	36.0	87	32.5	4	10	270	0.00	29.662 
12:50	36.2	36.2	36.2	88	33.0	3	7	270	0.00	29.663 
12:55	36.3	36.3	36.3	85	32.2	3	13	270	0.00	29.664 
13:00	36.5	32.4	36.5	86	32.7	5	14	270	0.00	29.665 
13:05	36.3	33.0	36.3	86	32.5	4	12	248	0.00	29.666 
13:10	36.0	32.7	36.0	86	32.2	4	10	248	0.00	29.668 
13:15	35.9	35.9	35.9	87	32.4	3	14	270	0.00	29.668 
13:20	36.0	36.0	36.0	88	32.8	3	7	248	0.01	29.668 
13:25	35.9	31.7	35.9	88	32.7	5	12	270	0.00	29.669 
13:30	36.0	32.7	36.0	87	32.5	4	11	270	0.00	29.669 
13:35	36.0	32.7	36.0	87	32.5	4	9	270	0.00	29.667 
13:40	36.0	36.0	36.0	87	32.5	3	7	270	0.00	29.668 
13:45	36.0	32.7	36.0	87	32.5	4	12	270	0.00	29.669 
13:50	36.0	36.0	36.0	87	32.5	3	10	270	0.00	29.671 
13:55	36.2	36.2	36.2	87	32.7	2	6	270	0.00	29.671 
14:00	36.2	36.2	36.2	87	32.7	2	4	270	0.00	29.673 
14:05	36.3	36.3	36.3	86	32.5	3	7	270	0.00	29.678 
14:10	36.3	36.3	36.3	86	32.5	3	10	270	0.00	29.672 
14:15	36.5	36.5	36.5	85	32.4	3	5	270	0.00	29.671 
14:20	36.5	36.5	36.5	85	32.4	2	6	248	0.00	29.678 
14:25	36.6	36.6	36.6	85	32.5	2	4	270	0.00	29.679 
14:30	36.6	36.6	36.6	84	32.2	3	9	270	0.00	29.683 
14:35	36.6	36.6	36.6	84	32.2	3	9	270	0.00	29.685 
14:40	36.8	33.6	36.8	84	32.4	4	10	270	0.00	29.692 
14:45	36.8	36.8	36.8	83	32.1	3	7	270	0.00	29.698 
14:50	36.8	33.6	36.8	83	32.1	4	10	248	0.00	29.701 
14:55	36.8	36.8	36.8	83	32.1	3	9	270	0.00	29.704 
15:00	36.8	33.6	36.8	83	32.1	4	11	248	0.00	29.709 
15:05	36.6	32.5	36.6	83	31.9	5	14	270	0.00	29.714 
15:10	36.6	36.6	36.6	82	31.6	3	9	248	0.00	29.717 
15:15	36.5	32.4	36.5	83	31.8	5	12	248	0.00	29.718 
15:20	36.3	36.3	36.3	83	31.6	3	6	270	0.00	29.726 
15:25	36.2	36.2	36.2	84	31.8	3	7	248	0.00	29.732 
15:30	36.0	36.0	36.0	84	31.6	3	9	248	0.00	29.734 
15:35	36.0	36.0	36.0	85	31.9	2	12	270	0.00	29.735 
15:40	36.0	36.0	36.0	85	31.9	2	9	248	0.00	29.735 
15:45	36.0	32.7	36.0	85	31.9	4	9	248	0.00	29.740 
15:50	35.9	31.7	35.9	85	31.8	5	12	248	0.00	29.742 
15:55	36.0	36.0	36.0	85	31.9	3	12	270	0.00	29.745 
16:00	36.0	36.0	36.0	85	31.9	3	10	270	0.00	29.747 
16:05	36.0	36.0	36.0	85	31.9	2	6	248	0.00	29.750 
16:10	36.0	36.0	36.0	84	31.6	2	7	270	0.00	29.753 
16:15	35.9	32.6	35.9	84	31.5	4	7	248	0.00	29.753 
16:20	35.9	35.9	35.9	84	31.5	3	6	248	0.00	29.755 
16:25	35.9	35.9	35.9	84	31.5	2	6	248	0.00	29.763 
16:30	35.8	35.8	35.8	85	31.7	3	6	248	0.00	29.765 
16:35	35.8	35.8	35.8	85	31.7	2	4	248	0.00	29.767 
16:40	35.8	35.8	35.8	84	31.4	3	9	270	0.00	29.768 
16:45	35.8	32.5	35.8	84	31.4	4	12	248	0.00	29.768 
16:50	35.8	35.8	35.8	84	31.4	3	7	248	0.00	29.771 
16:55	35.8	35.8	35.8	84	31.4	2	9	248	0.00	29.778 
17:00	35.8	35.8	35.8	84	31.4	2	6	248	0.00	29.781 
17:05	35.8	35.8	35.8	84	31.4	3	6	248	0.00	29.782 
17:10	35.9	35.9	35.9	84	31.5	3	6	248	0.00	29.784 
17:15	35.9	35.9	35.9	84	31.5	2	5	270	0.00	29.785 
17:20	35.8	35.8	35.8	83	31.2	3	7	248	0.00	29.787 
17:25	35.8	35.8	35.8	83	31.2	3	10	248	0.00	29.793 
17:30	35.8	35.8	35.8	84	31.4	3	10	248	0.00	29.793 
17:35	35.6	35.6	35.6	84	31.3	2	5	248	0.00	29.797 
17:40	35.6	35.6	35.6	85	31.5	1	4	248	0.00	29.799 
17:45	35.5	35.5	35.5	85	31.4	1	5	248	0.00	29.799 
17:50	35.5	35.5	35.5	85	31.4	2	6	248	0.00	29.800 
17:55	35.5	35.5	35.5	86	31.7	1	4	248	0.00	29.801 
18:00	35.3	35.3	35.3	86	31.5	1	6	248	0.00	29.805 
18:05	35.3	35.3	35.3	85	31.2	2	5	248	0.00	29.811 
18:10	35.3	35.3	35.3	84	31.0	2	9	248	0.00	29.815 
18:15	35.3	31.9	35.3	82	30.4	4	9	248	0.00	29.817 
18:20	35.5	35.5	35.5	81	30.3	3	7	248	0.00	29.817 
18:25	35.5	35.5	35.5	80	30.0	3	8	248	0.00	29.819 
18:30	35.5	32.1	35.5	79	29.6	4	9	248	0.00	29.821 
18:35	35.3	31.9	35.3	77	28.8	4	12	248	0.00	29.823 
18:40	35.3	31.9	35.3	77	28.8	4	9	248	0.00	29.828 
18:45	35.3	35.3	35.3	77	28.8	3	10	248	0.00	29.828 
18:50	35.3	31.9	35.3	76	28.5	4	11	248	0.00	29.829 
18:55	35.3	31.9	35.3	76	28.5	4	11	248	0.00	29.830 
19:00	35.2	35.2	35.2	76	28.4	2	5	248	0.00	29.829 
19:05	35.2	35.2	35.2	76	28.4	2	7	248	0.00	29.831 
19:10	35.2	31.8	35.2	75	28.1	4	10	248	0.00	29.831 
19:15	35.2	31.8	35.2	75	28.1	4	12	248	0.00	29.833 
19:20	35.2	35.2	35.2	75	28.1	2	6	248	0.00	29.833 
19:25	35.0	35.0	35.0	75	27.9	2	6	248	0.00	29.834 
19:30	35.0	35.0	35.0	75	27.9	2	7	248	0.00	29.838 
19:35	35.0	35.0	35.0	73	27.2	3	9	248	0.00	29.840 
19:40	35.2	35.2	35.2	73	27.4	1	3	248	0.00	29.847 
19:45	35.2	35.2	35.2	74	27.8	1	6	248	0.00	29.848 
19:50	35.0	35.0	35.0	73	27.2	1	5	248	0.00	29.849 
19:55	35.0	35.0	35.0	73	27.2	1	5	248	0.00	29.849 
20:00	35.0	35.0	35.0	73	27.2	3	9	248	0.00	29.851 
20:05	35.0	31.5	35.0	72	26.9	4	10	248	0.00	29.854 
20:10	34.9	34.9	34.9	72	26.8	3	9	270	0.00	29.855 
20:15	34.9	31.4	34.9	72	26.8	4	11	248	0.00	29.858 
20:20	34.9	34.9	34.9	73	27.1	3	9	248	0.00	29.862 
20:25	34.7	34.7	34.7	73	26.9	3	9	248	0.00	29.863 
20:30	34.7	34.7	34.7	73	26.9	3	11	248	0.00	29.864 
20:35	34.6	34.6	34.6	74	27.2	1	4	248	0.00	29.864 
20:40	34.6	34.6	34.6	74	27.2	2	5	248	0.00	29.865 
20:45	34.6	34.6	34.6	75	27.5	3	10	248	0.00	29.866 
20:50	34.6	34.6	34.6	75	27.5	1	5	270	0.00	29.867 
20:55	34.6	34.6	34.6	76	27.8	3	7	248	0.00	29.869 
21:00	34.4	34.4	34.4	76	27.6	3	6	248	0.00	29.873 
21:05	34.4	34.4	34.4	76	27.6	3	7	248	0.00	29.873 
21:10	34.4	34.4	34.4	76	27.6	2	5	248	0.00	29.875 
21:15	34.4	34.4	34.4	77	27.9	3	7	248	0.00	29.874 
21:20	34.3	34.3	34.3	77	27.9	3	7	248	0.00	29.876 
21:25	34.3	34.3	34.3	77	27.9	2	5	248	0.00	29.877 
21:30	34.3	34.3	34.3	78	28.2	2	6	248	0.00	29.880 
21:35	34.3	34.3	34.3	78	28.2	1	3	248	0.00	29.881 
21:40	34.3	34.3	34.3	79	28.5	1	5	248	0.00	29.882 
21:45	34.1	30.5	34.1	79	28.3	4	10	248	0.00	29.882 
21:50	34.1	34.1	34.1	80	28.6	3	7	248	0.00	29.882 
21:55	34.1	34.1	34.1	80	28.6	2	8	248	0.00	29.883 
22:00	34.0	34.0	34.0	79	28.2	3	6	248	0.00	29.884 
22:05	34.0	34.0	34.0	79	28.2	3	12	248	0.00	29.886 
22:10	34.0	34.0	34.0	78	27.9	2	7	270	0.00	29.886 
22:15	33.8	33.8	33.8	77	27.4	2	6	248	0.00	29.887 
22:20	33.8	33.8	33.8	77	27.4	2	5	248	0.00	29.889 
22:25	33.8	33.8	33.8	76	27.1	2	9	248	0.00	29.890 
22:30	33.8	30.2	33.8	76	27.1	4	12	270	0.00	29.892 
22:35	33.8	33.8	33.8	76	27.1	3	6	248	0.00	29.891 
22:40	33.7	33.7	33.7	77	27.3	3	6	248	0.00	29.895 
22:45	33.7	33.7	33.7	78	27.6	2	6	248	0.00	29.893 
22:50	33.5	33.5	33.5	78	27.4	2	6	248	0.00	29.894 
22:55	33.4	33.4	33.4	78	27.3	3	6	270	0.00	29.894 
23:00	33.4	33.4	33.4	78	27.3	1	4	225	0.00	29.895 
23:05	33.2	33.2	33.2	78	27.1	2	7	248	0.00	29.896 
23:10	33.2	33.2	33.2	78	27.1	2	5	248	0.00	29.893 
23:15	33.2	33.2	33.2	77	26.8	2	5	248	0.00	29.890 
23:20	33.1	33.1	33.1	77	26.7	2	6	248	0.00	29.893 
23:25	33.1	33.1	33.1	77	26.7	2	5	248	0.00	29.895 
23:30	33.1	33.1	33.1	77	26.7	2	6	248	0.00	29.895 
23:35	33.1	33.1	33.1	77	26.7	1	2	248	0.00	29.895 
23:40	33.1	33.1	33.1	77	26.7	2	6	248	0.00	29.897 
23:45	33.1	33.1	33.1	77	26.7	2	6	248	0.00	29.897 
23:50	33.1	33.1	33.1	77	26.7	2	6	248	0.00	29.897 
23:55	33.1	33.1	33.1	77	26.7	1	4	248	0.00	29.897 

CoCoRaHS
IN-AL-39
A2 Web Hosting
Creative Commons License
GoDaddy
Look for:

loaded 2017-12-11 14:13:48 • last modified 2010-11-18 10:43:29
Privacy PolicyDisclaimer
• wx.awcolley.com is powered by PmWiki v.2002016 •
• all content (unless otherwise noted) © 2017 A W Colley